createdAt,value
2018-01-27T00:01:24.361Z,13.57
2018-01-27T00:03:51.844Z,12.53
2018-01-27T00:06:19.289Z,13.17
2018-01-27T00:08:46.989Z,14.20
2018-01-27T00:11:14.438Z,14.83
2018-01-27T00:13:54.769Z,14.17
2018-01-27T00:16:22.213Z,13.17
2018-01-27T00:18:49.659Z,13.87
2018-01-27T00:21:17.123Z,11.33
2018-01-27T00:23:44.573Z,11.40
2018-01-27T00:26:12.182Z,10.63
2018-01-27T00:28:39.633Z,12.43
2018-01-27T00:31:07.079Z,12.63
2018-01-27T00:33:34.551Z,11.80
2018-01-27T00:36:01.993Z,11.07
2018-01-27T00:38:29.684Z,11.77
2018-01-27T00:40:57.217Z,10.80
2018-01-27T00:43:24.845Z,11.13
2018-01-27T00:45:52.308Z,10.93
2018-01-27T00:48:19.773Z,9.00
2018-01-27T00:50:47.377Z,8.00
2018-01-27T00:53:14.829Z,8.80
2018-01-27T00:55:42.285Z,9.10
2018-01-27T00:58:09.783Z,9.60
2018-01-27T01:00:37.241Z,10.30
2018-01-27T01:03:04.951Z,9.43
2018-01-27T01:05:32.396Z,11.00
2018-01-27T01:07:59.848Z,9.70
2018-01-27T01:10:27.319Z,9.53
2018-01-27T01:12:54.770Z,9.03
2018-01-27T01:15:22.293Z,11.50
2018-01-27T01:17:49.757Z,11.23
2018-01-27T01:20:17.249Z,9.70
2018-01-27T01:22:45.022Z,12.23
2018-01-27T01:25:12.465Z,12.07
2018-01-27T01:27:39.932Z,12.67
2018-01-27T01:30:07.382Z,10.00
2018-01-27T01:32:34.829Z,10.80
2018-01-27T01:35:02.333Z,10.10
2018-01-27T01:37:29.780Z,10.33
2018-01-27T01:39:57.284Z,10.40
2018-01-27T01:42:30.200Z,12.10
2018-01-27T01:44:57.668Z,10.97
2018-01-27T01:47:25.978Z,10.20
2018-01-27T01:49:53.453Z,10.33
2018-01-27T01:52:20.917Z,11.70
2018-01-27T01:54:48.361Z,10.57
2018-01-27T01:57:15.957Z,9.50
2018-01-27T01:59:43.397Z,9.67
2018-01-27T02:02:10.836Z,9.70
2018-01-27T02:04:38.316Z,10.50
2018-01-27T02:07:05.771Z,9.93
2018-01-27T02:09:33.452Z,9.00
2018-01-27T02:12:00.901Z,9.77
2018-01-27T02:14:28.344Z,9.90
2018-01-27T02:16:55.844Z,10.07
2018-01-27T02:19:23.298Z,10.20
2018-01-27T02:21:50.932Z,9.70
2018-01-27T02:24:18.377Z,10.13
2018-01-27T02:26:45.817Z,9.70
2018-01-27T02:29:13.293Z,11.27
2018-01-27T02:31:40.763Z,10.53
2018-01-27T02:34:08.261Z,11.87
2018-01-27T02:36:35.700Z,9.63
2018-01-27T02:39:03.193Z,11.13
2018-01-27T02:41:30.668Z,10.90
2018-01-27T02:43:58.112Z,11.20
2018-01-27T02:46:25.580Z,10.53
2018-01-27T02:48:53.041Z,11.03
2018-01-27T02:51:20.509Z,11.00
2018-01-27T02:53:47.964Z,9.43
2018-01-27T02:56:15.421Z,11.33
2018-01-27T02:58:42.888Z,11.37
2018-01-27T03:01:10.340Z,10.83
2018-01-27T03:03:37.784Z,13.60
2018-01-27T03:06:05.264Z,12.77
2018-01-27T03:08:32.708Z,12.13
2018-01-27T03:11:00.393Z,11.00
2018-01-27T03:13:27.845Z,10.50
2018-01-27T03:15:55.300Z,10.40
2018-01-27T03:18:22.769Z,12.30
2018-01-27T03:20:50.218Z,9.97
2018-01-27T03:23:17.852Z,10.50
2018-01-27T03:25:45.294Z,12.00
2018-01-27T03:28:12.760Z,10.63
2018-01-27T03:30:40.253Z,11.93
2018-01-27T03:33:07.717Z,13.27
2018-01-27T03:35:35.453Z,11.63
2018-01-27T03:38:02.902Z,11.67
2018-01-27T03:40:30.344Z,12.80
2018-01-27T03:42:58.544Z,11.93
2018-01-27T03:45:25.989Z,9.90
2018-01-27T03:47:53.650Z,10.27
2018-01-27T03:50:21.092Z,10.70
2018-01-27T03:52:48.541Z,11.50
2018-01-27T03:55:16.225Z,9.63
2018-01-27T03:57:43.666Z,9.67
2018-01-27T04:00:11.344Z,10.30
2018-01-27T04:02:38.798Z,10.10
2018-01-27T04:05:06.240Z,9.20
2018-01-27T04:07:33.713Z,9.37
2018-01-27T04:10:01.169Z,10.43
2018-01-27T04:12:29.037Z,10.13
2018-01-27T04:14:56.476Z,12.10
2018-01-27T04:17:23.920Z,8.70
2018-01-27T04:19:51.390Z,10.50
2018-01-27T04:22:18.833Z,10.53
2018-01-27T04:24:46.317Z,12.70
2018-01-27T04:27:13.768Z,14.10
2018-01-27T04:29:41.221Z,16.27
2018-01-27T04:32:08.799Z,15.80
2018-01-27T04:34:36.253Z,15.63
2018-01-27T04:37:04.009Z,12.57
2018-01-27T04:39:31.465Z,10.80
2018-01-27T04:41:58.933Z,12.00
2018-01-27T04:44:26.404Z,15.80
2018-01-27T04:46:53.852Z,10.20
2018-01-27T04:49:21.712Z,9.40
2018-01-27T04:51:49.176Z,10.17
2018-01-27T04:54:16.632Z,13.47
2018-01-27T04:56:46.267Z,10.07
2018-01-27T04:59:13.737Z,7.53
2018-01-27T05:01:41.557Z,9.60
2018-01-27T05:04:09.024Z,11.23
2018-01-27T05:06:36.468Z,9.03
2018-01-27T05:09:04.568Z,10.10
2018-01-27T05:11:32.097Z,9.27
2018-01-27T05:13:59.717Z,6.97
2018-01-27T05:16:27.372Z,9.70
2018-01-27T05:18:54.815Z,8.50
2018-01-27T05:21:22.956Z,8.93
2018-01-27T05:23:50.396Z,9.53
2018-01-27T05:26:18.053Z,9.30
2018-01-27T05:28:45.667Z,8.47
2018-01-27T05:31:13.101Z,7.10
2018-01-27T05:33:40.778Z,9.47
2018-01-27T05:36:08.220Z,10.10
2018-01-27T05:38:35.929Z,10.93
2018-01-27T05:41:03.384Z,10.67
2018-01-27T05:43:30.828Z,11.93
2018-01-27T05:45:58.683Z,10.20
2018-01-27T05:48:26.143Z,11.37
2018-01-27T05:50:53.747Z,11.53
2018-01-27T05:53:21.195Z,10.20
2018-01-27T05:55:48.717Z,11.73
2018-01-27T05:58:16.180Z,9.57
2018-01-27T06:00:43.628Z,11.60
2018-01-27T06:03:11.437Z,10.03
2018-01-27T06:05:38.898Z,10.33
2018-01-27T06:08:06.353Z,10.50
2018-01-27T06:10:33.816Z,8.00
2018-01-27T06:13:01.268Z,9.33
2018-01-27T06:15:28.737Z,8.37
2018-01-27T06:17:56.177Z,9.13
2018-01-27T06:20:23.622Z,10.47
2018-01-27T06:22:51.093Z,9.10
2018-01-27T06:25:18.537Z,8.90
2018-01-27T06:27:46.201Z,7.63
2018-01-27T06:30:13.645Z,8.10
2018-01-27T06:32:41.080Z,8.90
2018-01-27T06:35:08.540Z,9.60
2018-01-27T06:37:36.017Z,10.07
2018-01-27T06:40:03.489Z,9.20
2018-01-27T06:42:30.956Z,8.30
2018-01-27T06:44:58.399Z,7.30
2018-01-27T06:47:25.869Z,10.47
2018-01-27T06:49:53.314Z,8.70
2018-01-27T06:52:20.980Z,11.30
2018-01-27T06:54:48.417Z,9.40
2018-01-27T06:57:15.886Z,14.17
2018-01-27T06:59:43.357Z,13.60
2018-01-27T07:02:11.048Z,11.40
2018-01-27T07:04:38.664Z,12.10
2018-01-27T07:07:06.104Z,9.83
2018-01-27T07:09:33.712Z,11.30
2018-01-27T07:12:01.186Z,12.70
2018-01-27T07:14:28.636Z,14.40
2018-01-27T07:16:56.120Z,11.00
2018-01-27T07:19:23.568Z,11.73
2018-01-27T07:21:51.028Z,12.77
2018-01-27T07:24:18.613Z,11.70
2018-01-27T07:26:46.065Z,11.80
2018-01-27T07:29:13.862Z,11.33
2018-01-27T07:31:41.332Z,10.93
2018-01-27T07:34:08.789Z,13.43
2018-01-27T07:36:36.254Z,12.00
2018-01-27T07:39:03.708Z,13.17
2018-01-27T07:41:31.477Z,11.37
2018-01-27T07:43:58.945Z,11.47
2018-01-27T07:46:26.393Z,10.67
2018-01-27T07:48:53.857Z,11.83
2018-01-27T07:51:21.324Z,14.10
2018-01-27T07:53:48.905Z,9.33
2018-01-27T07:56:16.353Z,12.60
2018-01-27T07:58:43.796Z,9.90
2018-01-27T08:01:11.256Z,9.93
2018-01-27T08:03:39.678Z,12.83
2018-01-27T08:06:07.437Z,10.70
2018-01-27T08:08:34.890Z,14.03
2018-01-27T08:11:02.332Z,10.00
2018-01-27T08:13:29.833Z,9.67
2018-01-27T08:15:57.299Z,10.40
2018-01-27T08:18:24.885Z,14.63
2018-01-27T08:20:52.341Z,11.47
2018-01-27T08:23:19.792Z,15.03
2018-01-27T08:25:47.328Z,12.97
2018-01-27T08:28:14.773Z,12.13
2018-01-27T08:30:42.408Z,19.90
2018-01-27T08:33:10.057Z,15.47
2018-01-27T08:35:37.509Z,13.63
2018-01-27T08:38:07.652Z,12.00
2018-01-27T08:40:35.104Z,14.90
2018-01-27T08:43:02.763Z,14.07
2018-01-27T08:45:30.220Z,12.17
2018-01-27T08:47:57.731Z,14.47
2018-01-27T08:50:25.208Z,14.30
2018-01-27T08:52:52.653Z,13.60
2018-01-27T08:55:20.202Z,16.30
2018-01-27T08:57:47.648Z,16.63
2018-01-27T09:00:15.109Z,15.83
2018-01-27T09:02:42.929Z,14.10
2018-01-27T09:05:10.372Z,20.00
2018-01-27T09:07:37.855Z,32.00
2018-01-27T09:10:05.305Z,22.57
2018-01-27T09:12:32.753Z,15.93
2018-01-27T09:15:00.365Z,16.10
2018-01-27T09:17:27.828Z,14.23
2018-01-27T09:19:55.456Z,15.00
2018-01-27T09:22:23.028Z,15.80
2018-01-27T09:24:50.545Z,14.40
2018-01-27T09:27:18.272Z,19.40
2018-01-27T09:29:45.717Z,14.73
2018-01-27T09:32:13.452Z,17.87
2018-01-27T09:34:40.900Z,20.97
2018-01-27T09:37:08.353Z,15.03
2018-01-27T09:39:36.241Z,16.77
2018-01-27T09:42:03.706Z,15.40
2018-01-27T09:44:31.477Z,16.37
2018-01-27T09:46:58.922Z,15.70
2018-01-27T09:49:26.404Z,16.97
2018-01-27T09:51:54.568Z,19.60
2018-01-27T09:54:22.008Z,15.70
2018-01-27T09:56:49.637Z,14.37
2018-01-27T09:59:17.094Z,15.63
2018-01-27T10:01:44.546Z,17.23
2018-01-27T10:04:12.050Z,18.10
2018-01-27T10:06:39.532Z,15.17
2018-01-27T10:09:07.117Z,18.00
2018-01-27T10:11:34.632Z,18.60
2018-01-27T10:14:02.081Z,18.97
2018-01-27T10:16:29.569Z,19.00
2018-01-27T10:18:57.013Z,19.47
2018-01-27T10:21:24.818Z,18.10
2018-01-27T10:23:52.280Z,20.57
2018-01-27T10:26:19.934Z,19.83
2018-01-27T10:28:47.697Z,21.00
2018-01-27T10:31:15.137Z,16.60
2018-01-27T10:33:42.768Z,17.53
2018-01-27T10:36:10.228Z,16.07
2018-01-27T10:38:37.756Z,17.43
2018-01-27T10:41:05.249Z,16.90
2018-01-27T10:43:32.701Z,16.77
2018-01-27T10:46:00.409Z,20.70
2018-01-27T10:48:27.852Z,22.50
2018-01-27T10:50:55.299Z,22.67
2018-01-27T10:53:22.772Z,21.43
2018-01-27T10:55:50.254Z,20.47
2018-01-27T10:58:17.990Z,21.50
2018-01-27T11:00:48.245Z,19.87
2018-01-27T11:03:15.688Z,22.50
2018-01-27T11:05:43.233Z,20.57
2018-01-27T11:08:10.681Z,20.77
2018-01-27T11:10:38.357Z,17.10
2018-01-27T11:13:05.805Z,16.23
2018-01-27T11:15:33.275Z,18.67
2018-01-27T11:18:00.788Z,17.20
2018-01-27T11:20:28.232Z,18.10
2018-01-27T11:22:55.935Z,20.33
2018-01-27T11:25:23.377Z,19.53
2018-01-27T11:27:51.130Z,17.63
2018-01-27T11:30:20.735Z,20.57
2018-01-27T11:32:48.204Z,19.87
2018-01-27T11:35:15.756Z,16.73
2018-01-27T11:37:43.193Z,17.33
2018-01-27T11:40:10.669Z,19.57
2018-01-27T11:42:38.133Z,17.70
2018-01-27T11:45:05.581Z,16.43
2018-01-27T11:47:33.060Z,19.07
2018-01-27T11:50:00.501Z,21.50
2018-01-27T11:52:27.981Z,19.17
2018-01-27T11:54:55.514Z,19.80
2018-01-27T11:57:22.964Z,20.27
2018-01-27T11:59:50.672Z,18.57
2018-01-27T12:02:18.121Z,19.47
2018-01-27T12:04:45.585Z,21.00
2018-01-27T12:07:13.086Z,18.37
2018-01-27T12:09:40.533Z,18.67
2018-01-27T12:12:08.088Z,20.20
2018-01-27T12:14:35.533Z,17.87
2018-01-27T12:17:02.977Z,19.70
2018-01-27T12:19:30.445Z,16.10
2018-01-27T12:21:57.889Z,17.63
2018-01-27T12:24:25.516Z,16.10
2018-01-27T12:26:52.962Z,17.10
2018-01-27T12:29:20.476Z,15.27
2018-01-27T12:31:47.957Z,15.90
2018-01-27T12:34:15.405Z,17.53
2018-01-27T12:36:42.897Z,15.37
2018-01-27T12:39:10.448Z,16.93
2018-01-27T12:41:37.893Z,16.93
2018-01-27T12:44:05.365Z,17.03
2018-01-27T12:46:32.805Z,16.07
2018-01-27T12:49:00.254Z,15.17
2018-01-27T12:51:27.724Z,14.40
2018-01-27T12:53:55.168Z,16.30
2018-01-27T12:56:22.613Z,13.73
2018-01-27T12:58:50.101Z,16.50
2018-01-27T13:01:17.545Z,16.63
2018-01-27T13:03:44.989Z,16.20
2018-01-27T13:06:12.469Z,15.17
2018-01-27T13:08:39.916Z,15.07
2018-01-27T13:11:07.445Z,16.30
2018-01-27T13:13:34.949Z,16.80
2018-01-27T13:16:02.397Z,17.60
2018-01-27T13:18:29.859Z,17.97
2018-01-27T13:20:57.345Z,19.43
2018-01-27T13:23:24.797Z,16.33
2018-01-27T13:25:52.333Z,19.23
2018-01-27T13:28:20.179Z,23.00
2018-01-27T13:30:47.649Z,20.97
2018-01-27T13:33:15.125Z,20.60
2018-01-27T13:35:42.700Z,18.00
2018-01-27T13:38:10.150Z,21.87
2018-01-27T13:40:37.596Z,23.93
2018-01-27T13:43:05.353Z,21.70
2018-01-27T13:45:32.828Z,23.00
2018-01-27T13:48:00.273Z,19.70
2018-01-27T13:50:27.749Z,21.10
2018-01-27T13:52:55.221Z,21.60
2018-01-27T13:55:22.693Z,20.00
2018-01-27T13:57:50.304Z,18.47
2018-01-27T14:00:17.784Z,19.37
2018-01-27T14:02:45.232Z,19.87
2018-01-27T14:05:12.876Z,19.43
2018-01-27T14:07:40.384Z,19.20
2018-01-27T14:10:07.825Z,21.20
2018-01-27T14:12:35.760Z,24.70
2018-01-27T14:15:03.209Z,22.10
2018-01-27T14:17:30.657Z,20.13
2018-01-27T14:19:58.694Z,20.23
2018-01-27T14:22:26.145Z,19.03
2018-01-27T14:24:53.592Z,21.53
2018-01-27T14:27:21.068Z,20.10
2018-01-27T14:29:48.519Z,18.60
2018-01-27T14:32:16.002Z,19.57
2018-01-27T14:34:43.635Z,17.87
2018-01-27T14:37:11.086Z,18.57
2018-01-27T14:39:38.570Z,19.70
2018-01-27T14:42:06.360Z,19.70
2018-01-27T14:44:33.830Z,19.50
2018-01-27T14:47:01.291Z,19.43
2018-01-27T14:49:28.764Z,18.10
2018-01-27T14:51:56.210Z,21.23
2018-01-27T14:54:23.677Z,21.47
2018-01-27T14:56:51.406Z,22.30
2018-01-27T14:59:18.871Z,22.27
2018-01-27T15:01:46.323Z,21.60
2018-01-27T15:04:13.945Z,23.43
2018-01-27T15:06:41.428Z,20.90
2018-01-27T15:09:08.892Z,21.33
2018-01-27T15:11:36.410Z,21.07
2018-01-27T15:14:03.869Z,21.13
2018-01-27T15:16:31.316Z,20.27
2018-01-27T15:18:58.789Z,23.10
2018-01-27T15:21:26.260Z,22.23
2018-01-27T15:23:54.152Z,22.43
2018-01-27T15:26:21.597Z,20.20
2018-01-27T15:28:49.054Z,21.67
2018-01-27T15:31:16.540Z,18.40
2018-01-27T15:33:44.005Z,22.70
2018-01-27T15:36:11.482Z,21.57
2018-01-27T15:38:38.941Z,19.10
2018-01-27T15:41:06.410Z,21.07
2018-01-27T15:43:33.899Z,19.20
2018-01-27T15:46:01.376Z,19.77
2018-01-27T15:48:29.190Z,20.37
2018-01-27T15:50:56.638Z,21.37
2018-01-27T15:53:24.089Z,22.23
2018-01-27T15:55:52.207Z,21.20
2018-01-27T15:58:19.722Z,21.30
2018-01-27T16:00:47.322Z,20.97
2018-01-27T16:03:14.802Z,19.70
2018-01-27T16:05:42.285Z,22.47
2018-01-27T16:08:09.953Z,20.27
2018-01-27T16:10:37.440Z,20.40
2018-01-27T16:13:04.924Z,21.63
2018-01-27T16:15:32.369Z,24.17
2018-01-27T16:17:59.817Z,23.40
2018-01-27T16:20:27.313Z,23.87
2018-01-27T16:22:54.760Z,16.73
2018-01-27T16:25:22.252Z,23.73
2018-01-27T16:27:49.702Z,21.93
2018-01-27T16:30:17.181Z,22.80
2018-01-27T16:32:44.676Z,22.90
2018-01-27T16:35:12.122Z,20.30
2018-01-27T16:37:39.632Z,21.07
2018-01-27T16:40:07.078Z,22.40
2018-01-27T16:42:34.528Z,22.77
2018-01-27T16:45:02.105Z,23.57
2018-01-27T16:47:29.554Z,23.47
2018-01-27T16:49:57.036Z,23.80
2018-01-27T16:52:24.484Z,20.40
2018-01-27T16:54:51.933Z,24.53
2018-01-27T16:57:19.425Z,22.93
2018-01-27T16:59:46.896Z,22.23
2018-01-27T17:02:14.365Z,24.50
2018-01-27T17:04:41.841Z,21.80
2018-01-27T17:07:09.288Z,23.13
2018-01-27T17:09:36.801Z,23.23
2018-01-27T17:12:04.256Z,28.40
2018-01-27T17:14:31.747Z,22.40
2018-01-27T17:16:59.225Z,27.57
2018-01-27T17:19:26.681Z,26.70
2018-01-27T17:21:54.154Z,25.17
2018-01-27T17:24:22.211Z,24.43
2018-01-27T17:26:49.891Z,25.03
2018-01-27T17:29:17.357Z,27.57
2018-01-27T17:31:44.837Z,27.70
2018-01-27T17:34:12.314Z,26.80
2018-01-27T17:36:40.953Z,29.50
2018-01-27T17:39:09.087Z,21.80
2018-01-27T17:41:36.986Z,15.63
2018-01-27T17:44:04.643Z,15.10
2018-01-27T17:46:32.263Z,11.17
2018-01-27T17:48:59.783Z,11.53
2018-01-27T17:51:27.657Z,10.43
2018-01-27T17:53:55.307Z,9.90
2018-01-27T17:56:23.107Z,9.00
2018-01-27T17:58:50.769Z,10.63
2018-01-27T18:01:18.613Z,12.53
2018-01-27T18:03:46.151Z,13.10
2018-01-27T18:06:13.788Z,13.30
2018-01-27T18:08:41.235Z,14.40
2018-01-27T18:11:08.720Z,13.50
2018-01-27T18:13:36.176Z,14.00
2018-01-27T18:16:03.712Z,15.53
2018-01-27T18:18:31.184Z,15.17
2018-01-27T18:20:58.654Z,13.80
2018-01-27T18:23:26.124Z,14.33
2018-01-27T18:25:53.929Z,14.90
2018-01-27T18:28:21.613Z,14.47
2018-01-27T18:30:49.057Z,15.60
2018-01-27T18:33:16.500Z,14.50
2018-01-27T18:35:43.996Z,16.47
2018-01-27T18:38:11.447Z,14.30
2018-01-27T18:40:39.070Z,13.70
2018-01-27T18:43:07.121Z,13.63
2018-01-27T18:45:34.753Z,13.40
2018-01-27T18:48:02.286Z,12.57
2018-01-27T18:50:29.737Z,12.50
2018-01-27T18:52:57.233Z,10.07
2018-01-27T18:55:24.679Z,9.50
2018-01-27T18:57:52.126Z,11.53
2018-01-27T19:00:19.614Z,9.70
2018-01-27T19:02:47.056Z,9.40
2018-01-27T19:05:14.649Z,10.47
2018-01-27T19:07:42.887Z,7.63
2018-01-27T19:10:10.344Z,8.40
2018-01-27T19:12:37.814Z,9.23
2018-01-27T19:15:05.249Z,9.40
2018-01-27T19:17:32.729Z,9.57
2018-01-27T19:20:00.169Z,9.63
2018-01-27T19:22:27.709Z,10.03
2018-01-27T19:24:55.173Z,10.13
2018-01-27T19:27:22.661Z,10.23
2018-01-27T19:29:50.153Z,10.90
2018-01-27T19:32:17.600Z,12.73
2018-01-27T19:34:45.065Z,11.43
2018-01-27T19:37:12.540Z,11.13
2018-01-27T19:39:39.985Z,11.93
2018-01-27T19:42:07.528Z,12.30
2018-01-27T19:44:34.977Z,13.07
2018-01-27T19:47:02.422Z,12.40
2018-01-27T19:49:29.888Z,11.50
2018-01-27T19:51:57.336Z,11.70
2018-01-27T19:54:25.006Z,11.90
2018-01-27T19:56:52.458Z,13.47
2018-01-27T19:59:19.901Z,11.90
2018-01-27T20:01:47.364Z,13.30
2018-01-27T20:04:14.808Z,13.90
2018-01-27T20:06:42.493Z,14.23
2018-01-27T20:09:09.958Z,14.73
2018-01-27T20:11:37.407Z,14.80
2018-01-27T20:14:04.873Z,14.63
2018-01-27T20:16:32.318Z,14.30
2018-01-27T20:18:59.977Z,14.43
2018-01-27T20:21:27.425Z,13.40
2018-01-27T20:23:54.885Z,14.70
2018-01-27T20:26:22.356Z,14.07
2018-01-27T20:28:49.806Z,16.80
2018-01-27T20:31:17.276Z,19.03
2018-01-27T20:33:44.721Z,16.90
2018-01-27T20:36:12.195Z,14.60
2018-01-27T20:38:39.695Z,15.07
2018-01-27T20:41:07.144Z,15.90
2018-01-27T20:43:34.852Z,15.90
2018-01-27T20:46:02.312Z,17.80
2018-01-27T20:48:29.764Z,15.63
2018-01-27T20:50:57.229Z,16.70
2018-01-27T20:53:24.679Z,16.77
2018-01-27T20:55:52.197Z,16.20
2018-01-27T20:58:19.642Z,17.40
2018-01-27T21:00:47.095Z,17.30
2018-01-27T21:03:14.569Z,18.60
2018-01-27T21:05:42.025Z,20.10
2018-01-27T21:08:09.616Z,19.47
2018-01-27T21:10:38.968Z,19.07
2018-01-27T21:13:06.480Z,19.87
2018-01-27T21:15:33.945Z,21.03
2018-01-27T21:18:01.393Z,20.20
2018-01-27T21:20:28.872Z,18.40
2018-01-27T21:22:56.984Z,19.27
2018-01-27T21:25:24.460Z,17.27
2018-01-27T21:27:51.964Z,20.30
2018-01-27T21:30:19.413Z,18.80
2018-01-27T21:32:46.905Z,20.53
2018-01-27T21:35:14.403Z,18.90
2018-01-27T21:37:41.849Z,19.80
2018-01-27T21:40:09.317Z,20.63
2018-01-27T21:42:36.768Z,19.70
2018-01-27T21:45:04.453Z,21.93
2018-01-27T21:47:31.914Z,19.83
2018-01-27T21:49:59.364Z,15.60
2018-01-27T21:52:26.838Z,14.30
2018-01-27T21:54:54.285Z,13.20
2018-01-27T21:57:21.777Z,26.37
2018-01-27T21:59:49.236Z,11.97
2018-01-27T22:02:16.698Z,10.77
2018-01-27T22:04:44.181Z,12.03
2018-01-27T22:07:11.629Z,10.00
2018-01-27T22:09:39.142Z,12.23
2018-01-27T22:12:06.677Z,10.90
2018-01-27T22:14:34.129Z,9.70
2018-01-27T22:17:01.593Z,9.93
2018-01-27T22:19:29.044Z,11.73
2018-01-27T22:21:56.532Z,11.20
2018-01-27T22:24:23.976Z,12.50
2018-01-27T22:26:51.421Z,11.43
2018-01-27T22:29:18.896Z,12.20
2018-01-27T22:31:46.367Z,12.80
2018-01-27T22:34:13.940Z,12.43
2018-01-27T22:36:41.388Z,12.67
2018-01-27T22:39:08.840Z,11.93
2018-01-27T22:41:36.308Z,12.53
2018-01-27T22:44:03.757Z,14.27
2018-01-27T22:46:31.565Z,13.07
2018-01-27T22:48:59.008Z,13.17
2018-01-27T22:51:26.452Z,14.87
2018-01-27T22:53:53.942Z,12.40
2018-01-27T22:56:21.389Z,12.70
2018-01-27T22:58:49.357Z,12.87
2018-01-27T23:01:20.692Z,14.10
2018-01-27T23:03:48.137Z,12.00
2018-01-27T23:06:15.602Z,11.93
2018-01-27T23:08:43.073Z,12.63
2018-01-27T23:11:12.679Z,11.60
2018-01-27T23:13:40.193Z,11.90
2018-01-27T23:16:07.638Z,11.03
2018-01-27T23:18:35.106Z,8.77
2018-01-27T23:21:02.540Z,8.20
2018-01-27T23:23:30.016Z,7.23
2018-01-27T23:25:57.453Z,7.17
2018-01-27T23:28:24.893Z,8.23
2018-01-27T23:30:52.366Z,7.80
2018-01-27T23:33:19.825Z,9.60
2018-01-27T23:35:47.308Z,8.00
2018-01-27T23:38:14.780Z,8.70
2018-01-27T23:40:42.220Z,8.93
2018-01-27T23:43:09.684Z,9.40
2018-01-27T23:45:37.140Z,8.53
2018-01-27T23:48:04.617Z,9.40
2018-01-27T23:50:32.291Z,10.43
2018-01-27T23:52:59.777Z,9.87
2018-01-27T23:55:27.260Z,8.33
2018-01-27T23:57:54.697Z,9.47
